sensor_id;sensor_type;location;lat;lon;timestamp;pressure;altitude;pressure_sealevel;temperature;humidity
68380;BME280;57711;53.196;19.638;2023-03-22T00:02:26;100041.99;;;6.76;61.37
68380;BME280;57711;53.196;19.638;2023-03-22T00:04:56;100036.67;;;6.75;61.41
68380;BME280;57711;53.196;19.638;2023-03-22T00:07:23;100035.20;;;6.75;61.36
68380;BME280;57711;53.196;19.638;2023-03-22T00:09:52;100033.61;;;6.77;61.27
68380;BME280;57711;53.196;19.638;2023-03-22T00:12:19;100030.16;;;6.80;61.33
68380;BME280;57711;53.196;19.638;2023-03-22T00:14:46;100034.86;;;6.82;61.39
68380;BME280;57711;53.196;19.638;2023-03-22T00:17:15;100033.00;;;6.83;61.42
68380;BME280;57711;53.196;19.638;2023-03-22T00:19:42;100029.09;;;6.85;61.57
68380;BME280;57711;53.196;19.638;2023-03-22T00:22:10;100029.31;;;6.87;61.59
68380;BME280;57711;53.196;19.638;2023-03-22T00:24:37;100026.87;;;6.83;61.47
68380;BME280;57711;53.196;19.638;2023-03-22T00:27:05;100021.83;;;6.81;61.61
68380;BME280;57711;53.196;19.638;2023-03-22T00:29:32;100018.85;;;6.80;61.82
68380;BME280;57711;53.196;19.638;2023-03-22T00:31:59;100019.42;;;6.79;61.68
68380;BME280;57711;53.196;19.638;2023-03-22T00:34:30;100020.37;;;6.79;61.72
68380;BME280;57711;53.196;19.638;2023-03-22T00:36:57;100026.13;;;6.79;61.68
68380;BME280;57711;53.196;19.638;2023-03-22T00:39:24;100025.62;;;6.76;61.57
68380;BME280;57711;53.196;19.638;2023-03-22T00:41:52;100025.30;;;6.73;61.63
68380;BME280;57711;53.196;19.638;2023-03-22T00:44:20;100017.97;;;6.70;61.71
68380;BME280;57711;53.196;19.638;2023-03-22T00:46:47;100014.11;;;6.71;61.64
68380;BME280;57711;53.196;19.638;2023-03-22T00:49:14;100014.05;;;6.75;61.91
68380;BME280;57711;53.196;19.638;2023-03-22T00:51:41;100008.60;;;6.77;61.73
68380;BME280;57711;53.196;19.638;2023-03-22T00:54:08;100011.79;;;6.78;61.61
68380;BME280;57711;53.196;19.638;2023-03-22T00:56:36;100003.44;;;6.77;61.81
68380;BME280;57711;53.196;19.638;2023-03-22T00:59:11;99999.71;;;6.78;61.91
68380;BME280;57711;53.196;19.638;2023-03-22T01:01:39;99998.66;;;6.81;62.05
68380;BME280;57711;53.196;19.638;2023-03-22T01:04:06;99993.38;;;6.82;62.04
68380;BME280;57711;53.196;19.638;2023-03-22T01:06:34;99989.43;;;6.82;61.93
68380;BME280;57711;53.196;19.638;2023-03-22T01:09:01;99984.26;;;6.81;61.91
68380;BME280;57711;53.196;19.638;2023-03-22T01:11:28;99981.95;;;6.80;61.97
68380;BME280;57711;53.196;19.638;2023-03-22T01:13:55;99978.50;;;6.79;61.98
68380;BME280;57711;53.196;19.638;2023-03-22T01:16:23;99972.80;;;6.76;61.95
68380;BME280;57711;53.196;19.638;2023-03-22T01:18:50;99975.97;;;6.77;61.97
68380;BME280;57711;53.196;19.638;2023-03-22T01:21:18;99970.23;;;6.76;61.91
68380;BME280;57711;53.196;19.638;2023-03-22T01:23:45;99966.85;;;6.78;61.99
68380;BME280;57711;53.196;19.638;2023-03-22T01:26:12;99965.88;;;6.82;62.05
68380;BME280;57711;53.196;19.638;2023-03-22T01:28:39;99960.20;;;6.86;62.34
68380;BME280;57711;53.196;19.638;2023-03-22T01:31:07;99958.69;;;6.87;62.14
68380;BME280;57711;53.196;19.638;2023-03-22T01:33:34;99958.11;;;6.85;62.21
68380;BME280;57711;53.196;19.638;2023-03-22T01:36:02;99953.70;;;6.84;62.20
68380;BME280;57711;53.196;19.638;2023-03-22T01:38:31;99949.21;;;6.81;62.21
68380;BME280;57711;53.196;19.638;2023-03-22T01:40:59;99951.38;;;6.81;62.30
68380;BME280;57711;53.196;19.638;2023-03-22T01:43:28;99943.41;;;6.84;62.22
68380;BME280;57711;53.196;19.638;2023-03-22T01:45:56;99936.45;;;6.86;62.17
68380;BME280;57711;53.196;19.638;2023-03-22T01:48:34;99933.04;;;6.88;62.23
68380;BME280;57711;53.196;19.638;2023-03-22T01:51:09;99930.82;;;6.89;62.06
68380;BME280;57711;53.196;19.638;2023-03-22T01:53:54;99931.52;;;6.89;62.19
68380;BME280;57711;53.196;19.638;2023-03-22T01:56:25;99927.05;;;6.91;62.23
68380;BME280;57711;53.196;19.638;2023-03-22T01:58:55;99920.14;;;6.90;62.25
68380;BME280;57711;53.196;19.638;2023-03-22T02:01:29;99914.06;;;6.87;62.21
68380;BME280;57711;53.196;19.638;2023-03-22T02:04:03;99916.27;;;6.87;62.36
68380;BME280;57711;53.196;19.638;2023-03-22T02:06:34;99916.91;;;6.83;62.36
68380;BME280;57711;53.196;19.638;2023-03-22T02:09:10;99916.38;;;6.80;62.21
68380;BME280;57711;53.196;19.638;2023-03-22T02:11:41;99911.08;;;6.79;62.33
68380;BME280;57711;53.196;19.638;2023-03-22T02:17:48;99900.42;;;6.78;62.27
68380;BME280;57711;53.196;19.638;2023-03-22T02:20:56;99893.46;;;6.75;62.32
68380;BME280;57711;53.196;19.638;2023-03-22T02:29:02;99900.10;;;6.64;62.49
68380;BME280;57711;53.196;19.638;2023-03-22T02:34:39;99894.90;;;6.61;62.37
68380;BME280;57711;53.196;19.638;2023-03-22T02:37:35;99893.18;;;6.62;62.42
68380;BME280;57711;53.196;19.638;2023-03-22T02:43:03;99893.12;;;6.61;62.61
68380;BME280;57711;53.196;19.638;2023-03-22T02:50:46;99892.39;;;6.48;62.48
68380;BME280;57711;53.196;19.638;2023-03-22T02:53:35;99893.92;;;6.46;62.52
68380;BME280;57711;53.196;19.638;2023-03-22T02:56:12;99890.46;;;6.40;62.66
68380;BME280;57711;53.196;19.638;2023-03-22T02:58:44;99887.59;;;6.37;62.60
68380;BME280;57711;53.196;19.638;2023-03-22T03:01:18;99887.57;;;6.38;62.65
68380;BME280;57711;53.196;19.638;2023-03-22T03:03:48;99886.22;;;6.36;62.66
68380;BME280;57711;53.196;19.638;2023-03-22T03:06:18;99884.14;;;6.38;62.66
68380;BME280;57711;53.196;19.638;2023-03-22T03:08:47;99886.85;;;6.35;62.64
68380;BME280;57711;53.196;19.638;2023-03-22T03:11:19;99883.29;;;6.33;62.77
68380;BME280;57711;53.196;19.638;2023-03-22T03:13:48;99883.31;;;6.32;62.71
68380;BME280;57711;53.196;19.638;2023-03-22T03:16:19;99881.06;;;6.26;62.71
68380;BME280;57711;53.196;19.638;2023-03-22T03:19:25;99885.05;;;6.21;62.55
68380;BME280;57711;53.196;19.638;2023-03-22T03:24:38;99885.34;;;6.15;62.76
68380;BME280;57711;53.196;19.638;2023-03-22T03:27:17;99879.29;;;6.17;62.83
68380;BME280;57711;53.196;19.638;2023-03-22T03:30:01;99880.74;;;6.19;62.76
68380;BME280;57711;53.196;19.638;2023-03-22T03:32:36;99875.63;;;6.18;62.89
68380;BME280;57711;53.196;19.638;2023-03-22T03:35:20;99876.86;;;6.18;62.77
68380;BME280;57711;53.196;19.638;2023-03-22T03:38:03;99881.39;;;6.18;62.80
68380;BME280;57711;53.196;19.638;2023-03-22T03:40:37;99880.47;;;6.16;62.97
68380;BME280;57711;53.196;19.638;2023-03-22T03:43:07;99876.82;;;6.17;63.02
68380;BME280;57711;53.196;19.638;2023-03-22T03:45:36;99877.86;;;6.15;62.90
68380;BME280;57711;53.196;19.638;2023-03-22T03:48:08;99876.09;;;6.14;62.85
68380;BME280;57711;53.196;19.638;2023-03-22T03:50:36;99877.60;;;6.18;62.86
68380;BME280;57711;53.196;19.638;2023-03-22T03:53:04;99877.70;;;6.19;63.03
68380;BME280;57711;53.196;19.638;2023-03-22T03:55:32;99878.08;;;6.21;63.04
68380;BME280;57711;53.196;19.638;2023-03-22T03:57:59;99876.55;;;6.25;63.06
68380;BME280;57711;53.196;19.638;2023-03-22T04:00:26;99876.73;;;6.29;63.09
68380;BME280;57711;53.196;19.638;2023-03-22T04:03:30;99881.70;;;6.32;63.14
68380;BME280;57711;53.196;19.638;2023-03-22T04:06:27;99878.23;;;6.31;63.19
68380;BME280;57711;53.196;19.638;2023-03-22T04:08:58;99881.75;;;6.29;63.12
68380;BME280;57711;53.196;19.638;2023-03-22T04:11:29;99882.57;;;6.28;63.04
68380;BME280;57711;53.196;19.638;2023-03-22T04:13:59;99880.46;;;6.25;63.19
68380;BME280;57711;53.196;19.638;2023-03-22T04:16:26;99881.91;;;6.25;63.12
68380;BME280;57711;53.196;19.638;2023-03-22T04:18:53;99877.71;;;6.23;63.07
68380;BME280;57711;53.196;19.638;2023-03-22T04:21:21;99872.41;;;6.27;63.16
68380;BME280;57711;53.196;19.638;2023-03-22T04:23:54;99877.74;;;6.30;62.98
68380;BME280;57711;53.196;19.638;2023-03-22T04:26:22;99876.26;;;6.31;63.09
68380;BME280;57711;53.196;19.638;2023-03-22T04:29:12;99870.13;;;6.31;63.14
68380;BME280;57711;53.196;19.638;2023-03-22T04:31:43;99868.62;;;6.32;63.27
68380;BME280;57711;53.196;19.638;2023-03-22T04:34:19;99867.75;;;6.34;63.16
68380;BME280;57711;53.196;19.638;2023-03-22T04:36:59;99868.80;;;6.34;63.28
68380;BME280;57711;53.196;19.638;2023-03-22T04:39:51;99865.79;;;6.34;63.40
68380;BME280;57711;53.196;19.638;2023-03-22T04:42:28;99866.23;;;6.33;63.26
68380;BME280;57711;53.196;19.638;2023-03-22T04:45:18;99860.49;;;6.30;63.25
68380;BME280;57711;53.196;19.638;2023-03-22T04:47:49;99861.06;;;6.30;63.35
68380;BME280;57711;53.196;19.638;2023-03-22T04:50:16;99863.70;;;6.33;63.22
68380;BME280;57711;53.196;19.638;2023-03-22T04:52:47;99864.73;;;6.36;63.26
68380;BME280;57711;53.196;19.638;2023-03-22T04:55:16;99859.02;;;6.35;63.19
68380;BME280;57711;53.196;19.638;2023-03-22T04:57:43;99860.73;;;6.39;63.40
68380;BME280;57711;53.196;19.638;2023-03-22T05:00:11;99863.66;;;6.40;63.35
68380;BME280;57711;53.196;19.638;2023-03-22T05:02:38;99866.85;;;6.38;63.36
68380;BME280;57711;53.196;19.638;2023-03-22T05:05:12;99860.52;;;6.37;63.42
68380;BME280;57711;53.196;19.638;2023-03-22T05:07:39;99853.48;;;6.37;63.45
68380;BME280;57711;53.196;19.638;2023-03-22T05:10:08;99853.11;;;6.35;63.43
68380;BME280;57711;53.196;19.638;2023-03-22T05:12:36;99854.73;;;6.35;63.63
68380;BME280;57711;53.196;19.638;2023-03-22T05:15:15;99851.27;;;6.36;63.53
68380;BME280;57711;53.196;19.638;2023-03-22T05:17:42;99848.58;;;6.38;63.58
68380;BME280;57711;53.196;19.638;2023-03-22T05:20:10;99849.49;;;6.42;63.54
68380;BME280;57711;53.196;19.638;2023-03-22T05:22:38;99846.38;;;6.46;63.59
68380;BME280;57711;53.196;19.638;2023-03-22T05:25:09;99844.63;;;6.47;63.53
68380;BME280;57711;53.196;19.638;2023-03-22T05:27:39;99849.23;;;6.48;63.59
68380;BME280;57711;53.196;19.638;2023-03-22T05:30:26;99846.03;;;6.50;63.60
68380;BME280;57711;53.196;19.638;2023-03-22T05:33:03;99841.35;;;6.52;63.67
68380;BME280;57711;53.196;19.638;2023-03-22T05:35:36;99840.59;;;6.51;63.70
68380;BME280;57711;53.196;19.638;2023-03-22T05:38:04;99835.90;;;6.49;63.69
68380;BME280;57711;53.196;19.638;2023-03-22T05:40:34;99830.30;;;6.47;63.81
68380;BME280;57711;53.196;19.638;2023-03-22T05:43:01;99827.90;;;6.50;63.72
68380;BME280;57711;53.196;19.638;2023-03-22T05:45:29;99823.81;;;6.54;63.77
68380;BME280;57711;53.196;19.638;2023-03-22T05:48:13;99821.76;;;6.59;63.80
68380;BME280;57711;53.196;19.638;2023-03-22T05:50:41;99823.39;;;6.64;63.64
68380;BME280;57711;53.196;19.638;2023-03-22T05:53:08;99823.90;;;6.64;63.89
68380;BME280;57711;53.196;19.638;2023-03-22T05:55:57;99824.71;;;6.67;63.89
68380;BME280;57711;53.196;19.638;2023-03-22T05:58:28;99819.09;;;6.68;63.90
68380;BME280;57711;53.196;19.638;2023-03-22T06:00:57;99814.23;;;6.70;63.97
68380;BME280;57711;53.196;19.638;2023-03-22T06:03:49;99811.71;;;6.70;63.95
68380;BME280;57711;53.196;19.638;2023-03-22T06:06:30;99815.17;;;6.70;64.09
68380;BME280;57711;53.196;19.638;2023-03-22T06:09:08;99814.44;;;6.72;63.97
68380;BME280;57711;53.196;19.638;2023-03-22T06:11:44;99813.86;;;6.75;63.95
68380;BME280;57711;53.196;19.638;2023-03-22T06:14:13;99811.41;;;6.76;63.99
68380;BME280;57711;53.196;19.638;2023-03-22T06:17:04;99815.73;;;6.78;63.85
68380;BME280;57711;53.196;19.638;2023-03-22T06:19:31;99809.41;;;6.81;64.07
68380;BME280;57711;53.196;19.638;2023-03-22T06:22:00;99811.88;;;6.82;64.08
68380;BME280;57711;53.196;19.638;2023-03-22T06:24:28;99811.48;;;6.82;64.01
68380;BME280;57711;53.196;19.638;2023-03-22T06:26:55;99808.39;;;6.83;64.29
68380;BME280;57711;53.196;19.638;2023-03-22T06:29:22;99813.16;;;6.81;64.19
68380;BME280;57711;53.196;19.638;2023-03-22T06:31:51;99811.86;;;6.84;64.42
68380;BME280;57711;53.196;19.638;2023-03-22T06:34:19;99814.49;;;6.87;64.18
68380;BME280;57711;53.196;19.638;2023-03-22T06:36:46;99813.88;;;6.88;64.27
68380;BME280;57711;53.196;19.638;2023-03-22T06:39:29;99809.80;;;6.90;64.38
68380;BME280;57711;53.196;19.638;2023-03-22T06:41:57;99816.40;;;6.90;64.29
68380;BME280;57711;53.196;19.638;2023-03-22T06:44:24;99816.63;;;6.90;64.38
68380;BME280;57711;53.196;19.638;2023-03-22T06:46:51;99812.23;;;6.93;64.59
68380;BME280;57711;53.196;19.638;2023-03-22T06:49:41;99812.30;;;6.94;64.47
68380;BME280;57711;53.196;19.638;2023-03-22T06:52:13;99807.91;;;6.93;64.45
68380;BME280;57711;53.196;19.638;2023-03-22T06:54:40;99805.20;;;6.93;64.47
68380;BME280;57711;53.196;19.638;2023-03-22T06:57:08;99801.59;;;6.91;64.31
68380;BME280;57711;53.196;19.638;2023-03-22T06:59:36;99804.11;;;6.93;64.55
68380;BME280;57711;53.196;19.638;2023-03-22T07:02:03;99802.36;;;6.95;64.51
68380;BME280;57711;53.196;19.638;2023-03-22T07:04:31;99807.55;;;6.95;64.66
68380;BME280;57711;53.196;19.638;2023-03-22T07:06:59;99807.98;;;6.96;64.73
68380;BME280;57711;53.196;19.638;2023-03-22T07:09:26;99814.71;;;6.97;64.52
68380;BME280;57711;53.196;19.638;2023-03-22T07:11:56;99812.78;;;6.97;64.62
68380;BME280;57711;53.196;19.638;2023-03-22T07:14:23;99808.27;;;6.95;64.55
68380;BME280;57711;53.196;19.638;2023-03-22T07:17:00;99803.73;;;6.93;64.67
68380;BME280;57711;53.196;19.638;2023-03-22T07:19:32;99801.27;;;6.95;64.75
68380;BME280;57711;53.196;19.638;2023-03-22T07:22:02;99799.54;;;6.98;64.93
68380;BME280;57711;53.196;19.638;2023-03-22T07:24:31;99792.05;;;7.02;64.69
68380;BME280;57711;53.196;19.638;2023-03-22T07:27:00;99786.34;;;7.06;64.87
68380;BME280;57711;53.196;19.638;2023-03-22T07:29:28;99783.27;;;7.11;64.90
68380;BME280;57711;53.196;19.638;2023-03-22T07:31:55;99783.95;;;7.13;65.14
68380;BME280;57711;53.196;19.638;2023-03-22T07:34:39;99782.90;;;7.15;64.92
68380;BME280;57711;53.196;19.638;2023-03-22T07:37:13;99779.40;;;7.16;64.90
68380;BME280;57711;53.196;19.638;2023-03-22T07:39:40;99778.58;;;7.17;64.94
68380;BME280;57711;53.196;19.638;2023-03-22T07:42:08;99781.58;;;7.18;65.11
68380;BME280;57711;53.196;19.638;2023-03-22T07:44:35;99786.41;;;7.18;65.23
68380;BME280;57711;53.196;19.638;2023-03-22T07:47:17;99785.65;;;7.19;65.21
68380;BME280;57711;53.196;19.638;2023-03-22T07:50:30;99787.27;;;7.23;65.02
68380;BME280;57711;53.196;19.638;2023-03-22T07:52:58;99784.64;;;7.25;65.06
68380;BME280;57711;53.196;19.638;2023-03-22T07:55:25;99785.11;;;7.23;65.06
68380;BME280;57711;53.196;19.638;2023-03-22T07:57:53;99786.12;;;7.24;65.18
68380;BME280;57711;53.196;19.638;2023-03-22T08:00:21;99785.45;;;7.26;65.30
68380;BME280;57711;53.196;19.638;2023-03-22T08:02:54;99786.71;;;7.28;65.24
68380;BME280;57711;53.196;19.638;2023-03-22T08:05:42;99776.48;;;7.30;65.23
68380;BME280;57711;53.196;19.638;2023-03-22T08:08:11;99774.82;;;7.30;65.35
68380;BME280;57711;53.196;19.638;2023-03-22T08:10:39;99777.21;;;7.29;65.49
68380;BME280;57711;53.196;19.638;2023-03-22T08:13:07;99776.00;;;7.29;65.43
68380;BME280;57711;53.196;19.638;2023-03-22T08:15:34;99772.53;;;7.32;65.38
68380;BME280;57711;53.196;19.638;2023-03-22T08:18:03;99767.56;;;7.35;65.48
68380;BME280;57711;53.196;19.638;2023-03-22T08:20:33;99770.94;;;7.38;65.39
68380;BME280;57711;53.196;19.638;2023-03-22T08:23:04;99763.92;;;7.38;65.47
68380;BME280;57711;53.196;19.638;2023-03-22T08:25:56;99759.91;;;7.41;65.57
68380;BME280;57711;53.196;19.638;2023-03-22T08:28:23;99757.23;;;7.45;65.76
68380;BME280;57711;53.196;19.638;2023-03-22T08:30:51;99759.90;;;7.46;65.51
68380;BME280;57711;53.196;19.638;2023-03-22T08:33:20;99758.14;;;7.45;65.63
68380;BME280;57711;53.196;19.638;2023-03-22T08:35:50;99757.21;;;7.43;65.63
68380;BME280;57711;53.196;19.638;2023-03-22T08:38:18;99756.25;;;7.46;65.73
68380;BME280;57711;53.196;19.638;2023-03-22T08:40:48;99761.15;;;7.50;65.86
68380;BME280;57711;53.196;19.638;2023-03-22T08:43:18;99761.36;;;7.51;65.86
68380;BME280;57711;53.196;19.638;2023-03-22T08:45:46;99759.95;;;7.53;65.76
68380;BME280;57711;53.196;19.638;2023-03-22T08:48:15;99760.39;;;7.54;65.84
68380;BME280;57711;53.196;19.638;2023-03-22T08:51:00;99764.55;;;7.54;65.80
68380;BME280;57711;53.196;19.638;2023-03-22T08:53:48;99760.88;;;7.55;66.04
68380;BME280;57711;53.196;19.638;2023-03-22T08:56:38;99755.05;;;7.56;65.95
68380;BME280;57711;53.196;19.638;2023-03-22T08:59:14;99756.71;;;7.60;66.02
68380;BME280;57711;53.196;19.638;2023-03-22T09:01:54;99754.43;;;7.63;66.20
68380;BME280;57711;53.196;19.638;2023-03-22T09:04:22;99755.89;;;7.67;66.04
68380;BME280;57711;53.196;19.638;2023-03-22T09:06:49;99756.52;;;7.68;66.09
68380;BME280;57711;53.196;19.638;2023-03-22T09:09:17;99760.45;;;7.71;66.05
68380;BME280;57711;53.196;19.638;2023-03-22T09:11:46;99761.20;;;7.72;66.05
68380;BME280;57711;53.196;19.638;2023-03-22T09:14:13;99764.25;;;7.74;66.13
68380;BME280;57711;53.196;19.638;2023-03-22T09:16:41;99761.23;;;7.76;66.27
68380;BME280;57711;53.196;19.638;2023-03-22T09:19:08;99757.27;;;7.79;66.05
68380;BME280;57711;53.196;19.638;2023-03-22T09:21:36;99754.60;;;7.78;66.22
68380;BME280;57711;53.196;19.638;2023-03-22T09:24:08;99753.32;;;7.79;66.11
68380;BME280;57711;53.196;19.638;2023-03-22T09:26:39;99750.12;;;7.80;66.19
68380;BME280;57711;53.196;19.638;2023-03-22T09:29:06;99748.70;;;7.82;66.29
68380;BME280;57711;53.196;19.638;2023-03-22T09:31:34;99753.63;;;7.83;66.30
68380;BME280;57711;53.196;19.638;2023-03-22T09:34:12;99747.27;;;7.86;66.37
68380;BME280;57711;53.196;19.638;2023-03-22T09:36:39;99747.29;;;7.90;66.38
68380;BME280;57711;53.196;19.638;2023-03-22T09:39:07;99750.57;;;7.93;66.48
68380;BME280;57711;53.196;19.638;2023-03-22T09:41:41;99745.43;;;7.97;66.36
68380;BME280;57711;53.196;19.638;2023-03-22T09:44:32;99747.68;;;8.00;66.41
68380;BME280;57711;53.196;19.638;2023-03-22T09:47:02;99750.71;;;8.03;66.63
68380;BME280;57711;53.196;19.638;2023-03-22T09:49:38;99747.83;;;8.05;66.70
68380;BME280;57711;53.196;19.638;2023-03-22T09:52:19;99741.86;;;8.11;66.93
68380;BME280;57711;53.196;19.638;2023-03-22T09:54:46;99745.31;;;8.17;66.83
68380;BME280;57711;53.196;19.638;2023-03-22T09:57:36;99746.27;;;8.22;66.77
68380;BME280;57711;53.196;19.638;2023-03-22T10:08:14;99733.39;;;8.30;66.95
68380;BME280;57711;53.196;19.638;2023-03-22T10:10:44;99726.98;;;8.35;66.85
68380;BME280;57711;53.196;19.638;2023-03-22T10:13:16;99730.88;;;8.40;67.03
68380;BME280;57711;53.196;19.638;2023-03-22T10:15:56;99730.77;;;8.43;67.02
68380;BME280;57711;53.196;19.638;2023-03-22T10:18:29;99732.98;;;8.45;66.85
68380;BME280;57711;53.196;19.638;2023-03-22T10:21:06;99734.27;;;8.47;67.07
68380;BME280;57711;53.196;19.638;2023-03-22T10:23:43;99734.08;;;8.49;67.01
68380;BME280;57711;53.196;19.638;2023-03-22T10:26:19;99731.77;;;8.52;66.91
68380;BME280;57711;53.196;19.638;2023-03-22T10:29:02;99725.90;;;8.56;67.21
68380;BME280;57711;53.196;19.638;2023-03-22T10:31:31;99719.05;;;8.60;67.13
68380;BME280;57711;53.196;19.638;2023-03-22T10:34:12;99723.16;;;8.64;67.21
68380;BME280;57711;53.196;19.638;2023-03-22T10:36:43;99725.76;;;8.67;67.18
68380;BME280;57711;53.196;19.638;2023-03-22T10:39:37;99727.88;;;8.70;67.23
68380;BME280;57711;53.196;19.638;2023-03-22T10:42:12;99725.86;;;8.72;67.26
68380;BME280;57711;53.196;19.638;2023-03-22T10:44:54;99721.29;;;8.75;67.30
68380;BME280;57711;53.196;19.638;2023-03-22T10:47:37;99717.79;;;8.76;67.38
68380;BME280;57711;53.196;19.638;2023-03-22T10:50:15;99716.88;;;8.78;67.29
68380;BME280;57711;53.196;19.638;2023-03-22T10:52:54;99717.91;;;8.82;67.47
68380;BME280;57711;53.196;19.638;2023-03-22T10:55:24;99714.86;;;8.86;67.41
68380;BME280;57711;53.196;19.638;2023-03-22T10:58:07;99714.27;;;8.86;67.58
68380;BME280;57711;53.196;19.638;2023-03-22T11:00:37;99710.27;;;8.87;67.42
68380;BME280;57711;53.196;19.638;2023-03-22T11:03:08;99708.41;;;8.90;67.63
68380;BME280;57711;53.196;19.638;2023-03-22T11:05:35;99708.29;;;8.93;67.64
68380;BME280;57711;53.196;19.638;2023-03-22T11:08:02;99703.59;;;8.97;67.63
68380;BME280;57711;53.196;19.638;2023-03-22T11:10:30;99704.63;;;9.02;67.76
68380;BME280;57711;53.196;19.638;2023-03-22T11:15:42;99704.34;;;9.09;67.52
68380;BME280;57711;53.196;19.638;2023-03-22T11:18:16;99700.61;;;9.14;67.53
68380;BME280;57711;53.196;19.638;2023-03-22T11:20:58;99701.39;;;9.17;67.53
68380;BME280;57711;53.196;19.638;2023-03-22T11:23:31;99695.33;;;9.21;67.65
68380;BME280;57711;53.196;19.638;2023-03-22T11:26:11;99696.23;;;9.22;67.69
68380;BME280;57711;53.196;19.638;2023-03-22T11:28:45;99695.17;;;9.24;67.86
68380;BME280;57711;53.196;19.638;2023-03-22T11:31:15;99693.44;;;9.27;67.76
68380;BME280;57711;53.196;19.638;2023-03-22T11:34:15;99687.91;;;9.30;67.67
68380;BME280;57711;53.196;19.638;2023-03-22T11:36:43;99694.23;;;9.34;67.75
68380;BME280;57711;53.196;19.638;2023-03-22T11:39:11;99689.98;;;9.37;67.76
68380;BME280;57711;53.196;19.638;2023-03-22T11:41:39;99690.93;;;9.40;67.77
68380;BME280;57711;53.196;19.638;2023-03-22T11:44:11;99686.21;;;9.42;67.97
68380;BME280;57711;53.196;19.638;2023-03-22T11:46:38;99684.79;;;9.44;67.83
68380;BME280;57711;53.196;19.638;2023-03-22T11:49:16;99684.48;;;9.46;67.86
68380;BME280;57711;53.196;19.638;2023-03-22T11:51:43;99683.91;;;9.46;67.77
68380;BME280;57711;53.196;19.638;2023-03-22T11:56:55;99682.11;;;9.50;67.98
68380;BME280;57711;53.196;19.638;2023-03-22T11:59:38;99681.13;;;9.51;67.88
68380;BME280;57711;53.196;19.638;2023-03-22T12:02:28;99680.93;;;9.53;67.91
68380;BME280;57711;53.196;19.638;2023-03-22T12:05:12;99673.92;;;9.56;67.94
68380;BME280;57711;53.196;19.638;2023-03-22T12:07:43;99675.80;;;9.59;67.77
68380;BME280;57711;53.196;19.638;2023-03-22T12:10:17;99675.05;;;9.60;67.82
68380;BME280;57711;53.196;19.638;2023-03-22T12:12:57;99676.89;;;9.59;67.89
68380;BME280;57711;53.196;19.638;2023-03-22T12:15:34;99675.48;;;9.61;68.13
68380;BME280;57711;53.196;19.638;2023-03-22T12:18:33;99678.39;;;9.63;68.15
68380;BME280;57711;53.196;19.638;2023-03-22T12:21:02;99673.67;;;9.67;68.21
68380;BME280;57711;53.196;19.638;2023-03-22T12:23:31;99669.90;;;9.70;68.04
68380;BME280;57711;53.196;19.638;2023-03-22T12:28:52;99662.80;;;9.78;68.18
68380;BME280;57711;53.196;19.638;2023-03-22T12:31:23;99662.09;;;9.82;68.08
68380;BME280;57711;53.196;19.638;2023-03-22T12:33:55;99664.42;;;9.87;68.08
68380;BME280;57711;53.196;19.638;2023-03-22T12:36:35;99657.74;;;9.88;68.11
68380;BME280;57711;53.196;19.638;2023-03-22T12:39:06;99652.35;;;9.90;67.95
68380;BME280;57711;53.196;19.638;2023-03-22T12:41:39;99653.34;;;9.91;68.09
68380;BME280;57711;53.196;19.638;2023-03-22T12:44:17;99651.41;;;9.90;68.04
68380;BME280;57711;53.196;19.638;2023-03-22T12:46:50;99641.29;;;9.90;68.35
68380;BME280;57711;53.196;19.638;2023-03-22T12:49:25;99652.16;;;9.94;68.25
68380;BME280;57711;53.196;19.638;2023-03-22T12:52:01;99649.13;;;9.97;68.14
68380;BME280;57711;53.196;19.638;2023-03-22T12:54:30;99647.56;;;10.02;68.34
68380;BME280;57711;53.196;19.638;2023-03-22T12:56:58;99647.78;;;10.07;68.25
68380;BME280;57711;53.196;19.638;2023-03-22T12:59:28;99640.79;;;10.12;68.35
68380;BME280;57711;53.196;19.638;2023-03-22T13:02:12;99640.17;;;10.16;68.30
68380;BME280;57711;53.196;19.638;2023-03-22T13:07:14;99641.39;;;10.25;68.35
68380;BME280;57711;53.196;19.638;2023-03-22T13:09:46;99643.03;;;10.28;68.20
68380;BME280;57711;53.196;19.638;2023-03-22T13:30:33;99616.14;;;10.52;68.53
68380;BME280;57711;53.196;19.638;2023-03-22T13:38:23;99607.17;;;10.68;68.53
68380;BME280;57711;53.196;19.638;2023-03-22T13:40:52;99604.34;;;10.72;68.31
68380;BME280;57711;53.196;19.638;2023-03-22T13:46:12;99595.06;;;10.80;68.59
68380;BME280;57711;53.196;19.638;2023-03-22T13:51:12;99587.30;;;10.85;68.36
68380;BME280;57711;53.196;19.638;2023-03-22T13:53:54;99588.39;;;10.87;68.38
68380;BME280;57711;53.196;19.638;2023-03-22T14:02:12;99584.25;;;10.92;68.37
68380;BME280;57711;53.196;19.638;2023-03-22T14:05:06;99581.22;;;10.95;68.49
68380;BME280;57711;53.196;19.638;2023-03-22T14:07:57;99578.03;;;10.99;68.46
68380;BME280;57711;53.196;19.638;2023-03-22T14:15:36;99578.94;;;11.06;68.65
68380;BME280;57711;53.196;19.638;2023-03-22T14:18:10;99568.95;;;11.08;68.63
68380;BME280;57711;53.196;19.638;2023-03-22T14:20:41;99571.11;;;11.11;68.62
68380;BME280;57711;53.196;19.638;2023-03-22T14:23:20;99567.02;;;11.14;68.64
68380;BME280;57711;53.196;19.638;2023-03-22T14:25:49;99561.92;;;11.20;68.52
68380;BME280;57711;53.196;19.638;2023-03-22T14:28:21;99563.89;;;11.25;68.62
68380;BME280;57711;53.196;19.638;2023-03-22T14:30:56;99557.67;;;11.29;68.60
68380;BME280;57711;53.196;19.638;2023-03-22T14:33:22;99547.59;;;11.32;68.46
68380;BME280;57711;53.196;19.638;2023-03-22T14:35:55;99548.42;;;11.35;68.52
68380;BME280;57711;53.196;19.638;2023-03-22T14:38:26;99544.59;;;11.37;68.63
68380;BME280;57711;53.196;19.638;2023-03-22T14:41:23;99542.19;;;11.37;68.63
68380;BME280;57711;53.196;19.638;2023-03-22T14:43:56;99534.41;;;11.39;68.58
68380;BME280;57711;53.196;19.638;2023-03-22T14:46:33;99531.04;;;11.40;68.64
68380;BME280;57711;53.196;19.638;2023-03-22T14:49:01;99531.54;;;11.41;68.53
68380;BME280;57711;53.196;19.638;2023-03-22T14:51:36;99528.09;;;11.41;68.56